createdAt,value
2019-03-08T00:00:32.245Z,1.30
2019-03-08T00:03:01.029Z,1.80
2019-03-08T00:05:29.594Z,1.47
2019-03-08T00:07:58.174Z,1.57
2019-03-08T00:10:26.739Z,1.50
2019-03-08T00:12:55.566Z,1.30
2019-03-08T00:15:24.281Z,1.50
2019-03-08T00:17:53.379Z,1.70
2019-03-08T00:20:22.384Z,1.47
2019-03-08T00:22:51.094Z,1.53
2019-03-08T00:25:20.350Z,1.50
2019-03-08T00:27:49.057Z,1.63
2019-03-08T00:30:18.470Z,1.60
2019-03-08T00:32:47.346Z,1.60
2019-03-08T00:35:16.113Z,1.73
2019-03-08T00:37:44.825Z,1.90
2019-03-08T00:40:14.682Z,1.73
2019-03-08T00:42:43.663Z,1.70
2019-03-08T00:45:14.365Z,1.83
2019-03-08T00:47:43.683Z,1.97
2019-03-08T00:50:12.496Z,1.90
2019-03-08T00:52:41.397Z,1.83
2019-03-08T00:55:11.750Z,2.07
2019-03-08T00:57:40.446Z,1.87
2019-03-08T01:00:14.651Z,2.03
2019-03-08T01:02:43.506Z,2.07
2019-03-08T01:05:12.489Z,2.13
2019-03-08T01:07:41.284Z,2.53
2019-03-08T01:10:13.002Z,2.13
2019-03-08T01:12:41.745Z,2.60
2019-03-08T01:15:13.532Z,2.40
2019-03-08T01:17:42.253Z,2.30
2019-03-08T01:20:13.502Z,2.53
2019-03-08T01:22:42.231Z,2.17
2019-03-08T01:25:11.188Z,2.30
2019-03-08T01:27:51.918Z,2.40
2019-03-08T01:30:20.565Z,2.50
2019-03-08T01:32:49.292Z,2.50
2019-03-08T01:35:19.757Z,2.37
2019-03-08T01:37:48.490Z,3.00
2019-03-08T01:40:17.290Z,2.90
2019-03-08T01:42:45.816Z,2.23
2019-03-08T01:45:14.765Z,2.67
2019-03-08T01:47:43.446Z,2.60
2019-03-08T01:50:12.248Z,2.70
2019-03-08T01:52:41.006Z,2.60
2019-03-08T01:55:09.654Z,2.67
2019-03-08T01:57:38.285Z,2.63
2019-03-08T02:00:14.945Z,2.47
2019-03-08T02:02:43.566Z,3.17
2019-03-08T02:05:12.296Z,3.03
2019-03-08T02:07:40.851Z,2.90
2019-03-08T02:10:12.269Z,2.70
2019-03-08T02:12:42.104Z,2.80
2019-03-08T02:15:13.321Z,2.83
2019-03-08T02:17:41.946Z,2.97
2019-03-08T02:20:16.052Z,2.87
2019-03-08T02:22:44.616Z,2.80
2019-03-08T02:25:13.335Z,2.70
2019-03-08T02:27:41.897Z,3.07
2019-03-08T02:30:15.610Z,3.23
2019-03-08T02:32:44.541Z,2.90
2019-03-08T02:35:13.467Z,2.80
2019-03-08T02:37:42.026Z,3.00
2019-03-08T02:40:33.435Z,2.57
2019-03-08T02:43:03.836Z,3.60
2019-03-08T02:45:32.547Z,3.50
2019-03-08T02:48:01.247Z,3.00
2019-03-08T02:50:29.830Z,2.90
2019-03-08T02:52:58.460Z,2.47
2019-03-08T02:55:27.213Z,2.13
2019-03-08T02:57:55.838Z,2.10
2019-03-08T03:00:27.499Z,1.73
2019-03-08T03:02:56.058Z,1.40
2019-03-08T03:05:24.650Z,1.43
2019-03-08T03:07:53.279Z,1.80
2019-03-08T03:10:22.051Z,1.77
2019-03-08T03:12:50.609Z,1.80
2019-03-08T03:15:19.195Z,1.60
2019-03-08T03:17:47.758Z,1.50
2019-03-08T03:20:16.777Z,1.70
2019-03-08T03:22:45.342Z,1.60
2019-03-08T03:25:15.270Z,1.33
2019-03-08T03:27:43.822Z,1.40
2019-03-08T03:30:17.291Z,1.47
2019-03-08T03:32:45.858Z,1.77
2019-03-08T03:35:14.433Z,1.67
2019-03-08T03:37:43.087Z,1.43
2019-03-08T03:40:16.770Z,1.63
2019-03-08T03:42:45.506Z,1.57
2019-03-08T03:45:16.210Z,1.90
2019-03-08T03:47:44.839Z,1.70
2019-03-08T03:50:14.771Z,2.03
2019-03-08T03:52:43.339Z,1.87
2019-03-08T03:55:17.874Z,2.00
2019-03-08T03:57:46.526Z,2.30
2019-03-08T04:00:21.094Z,1.90
2019-03-08T04:02:49.658Z,2.10
2019-03-08T04:05:18.289Z,1.97
2019-03-08T04:07:46.873Z,1.87
2019-03-08T04:10:16.484Z,1.90
2019-03-08T04:12:45.122Z,2.20
2019-03-08T04:15:15.782Z,2.27
2019-03-08T04:17:44.669Z,2.30
2019-03-08T04:20:15.075Z,2.07
2019-03-08T04:22:43.685Z,1.97
2019-03-08T04:25:13.410Z,2.30
2019-03-08T04:27:42.125Z,2.07
2019-03-08T04:30:21.118Z,2.50
2019-03-08T04:32:49.694Z,1.97
2019-03-08T04:35:18.252Z,2.30
2019-03-08T04:37:46.831Z,2.77
2019-03-08T04:40:15.629Z,2.10
2019-03-08T04:42:44.219Z,2.60
2019-03-08T04:45:16.307Z,2.50
2019-03-08T04:47:44.898Z,2.23
2019-03-08T04:50:14.596Z,1.90
2019-03-08T04:52:43.287Z,2.10
2019-03-08T04:55:16.913Z,1.83
2019-03-08T04:57:46.577Z,1.97
2019-03-08T05:00:16.369Z,1.53
2019-03-08T05:02:45.026Z,2.00
2019-03-08T05:05:13.757Z,2.00
2019-03-08T05:07:42.413Z,1.67
2019-03-08T05:10:14.081Z,2.13
2019-03-08T05:12:42.926Z,1.90
2019-03-08T05:15:11.726Z,1.90
2019-03-08T05:17:40.314Z,1.70
2019-03-08T05:20:10.310Z,2.03
2019-03-08T05:22:38.957Z,1.70
2019-03-08T05:25:09.158Z,1.50
2019-03-08T05:27:37.751Z,1.70
2019-03-08T05:30:09.618Z,1.70
2019-03-08T05:32:38.203Z,1.70
2019-03-08T05:35:08.301Z,1.70
2019-03-08T05:37:36.879Z,1.57
2019-03-08T05:40:08.175Z,1.20
2019-03-08T05:42:36.772Z,1.70
2019-03-08T05:45:07.664Z,1.40
2019-03-08T05:47:36.248Z,1.60
2019-03-08T05:50:06.943Z,1.40
2019-03-08T05:52:35.598Z,1.50
2019-03-08T05:55:06.094Z,1.93
2019-03-08T05:57:34.752Z,1.77
2019-03-08T06:00:04.423Z,1.60
2019-03-08T06:02:33.006Z,1.70
2019-03-08T06:05:01.579Z,1.50
2019-03-08T06:07:30.170Z,1.87
2019-03-08T06:09:58.728Z,1.67
2019-03-08T06:12:27.400Z,1.50
2019-03-08T06:14:55.940Z,1.90
2019-03-08T06:17:24.530Z,1.80
2019-03-08T06:19:53.093Z,1.83
2019-03-08T06:22:21.685Z,1.60
2019-03-08T06:24:50.455Z,1.97
2019-03-08T06:27:19.046Z,2.20
2019-03-08T06:29:47.619Z,2.20
2019-03-08T06:32:16.213Z,1.63
2019-03-08T06:34:44.772Z,2.10
2019-03-08T06:37:13.362Z,1.90
2019-03-08T06:39:42.215Z,1.80
2019-03-08T06:42:10.862Z,1.80
2019-03-08T06:44:39.431Z,1.70
2019-03-08T06:47:08.010Z,1.40
2019-03-08T06:49:36.570Z,1.63
2019-03-08T06:52:05.159Z,1.70
2019-03-08T06:54:33.726Z,1.70
2019-03-08T06:57:02.290Z,1.57
2019-03-08T06:59:32.505Z,1.60
2019-03-08T07:02:01.681Z,2.00
2019-03-08T07:04:30.311Z,1.27
2019-03-08T07:06:58.866Z,1.53
2019-03-08T07:09:27.457Z,1.40
2019-03-08T07:11:56.015Z,1.47
2019-03-08T07:14:24.606Z,2.23
2019-03-08T07:16:53.170Z,1.53
2019-03-08T07:19:21.746Z,1.53
2019-03-08T07:21:51.943Z,2.03
2019-03-08T07:24:38.522Z,1.80
2019-03-08T07:27:14.515Z,2.10
2019-03-08T07:29:44.733Z,1.73
2019-03-08T07:32:14.934Z,2.03
2019-03-08T07:34:45.467Z,2.23
2019-03-08T07:37:31.758Z,2.00
2019-03-08T07:40:04.945Z,3.00
2019-03-08T07:42:45.112Z,2.70
2019-03-08T07:45:31.425Z,2.47
2019-03-08T07:48:01.662Z,2.20
2019-03-08T07:50:37.882Z,2.70
2019-03-08T07:53:14.030Z,3.73
2019-03-08T07:55:46.648Z,3.33
2019-03-08T07:58:28.830Z,2.77
2019-03-08T08:01:11.418Z,3.43
2019-03-08T08:03:50.448Z,2.87
2019-03-08T08:06:32.169Z,2.60
2019-03-08T08:09:14.630Z,2.60
2019-03-08T08:11:47.636Z,2.70
2019-03-08T08:14:39.604Z,2.80
2019-03-08T08:17:19.470Z,3.03
2019-03-08T08:20:01.636Z,3.10
2019-03-08T08:22:43.650Z,2.73
2019-03-08T08:25:13.947Z,2.87
2019-03-08T08:28:00.103Z,2.93
2019-03-08T08:30:46.518Z,2.47
2019-03-08T08:33:16.847Z,2.50
2019-03-08T08:36:01.846Z,2.90
2019-03-08T08:38:37.739Z,3.23
2019-03-08T08:41:07.948Z,2.50
2019-03-08T08:43:40.878Z,3.07
2019-03-08T08:46:11.109Z,2.80
2019-03-08T08:48:47.196Z,2.87
2019-03-08T08:51:20.107Z,2.80
2019-03-08T08:53:56.323Z,2.93
2019-03-08T08:56:26.506Z,2.90
2019-03-08T08:58:59.512Z,2.97
2019-03-08T09:01:32.722Z,2.53
2019-03-08T09:04:11.514Z,2.63
2019-03-08T09:06:44.482Z,3.13
2019-03-08T09:09:20.515Z,3.00
2019-03-08T09:11:53.259Z,3.50
2019-03-08T09:14:23.475Z,3.00
2019-03-08T09:17:05.667Z,2.93
2019-03-08T09:19:38.635Z,2.67
2019-03-08T09:22:08.998Z,2.90
2019-03-08T09:24:39.222Z,3.00
2019-03-08T09:27:21.494Z,3.37
2019-03-08T09:29:51.711Z,2.53
2019-03-08T09:32:22.010Z,2.27
2019-03-08T09:35:03.958Z,1.47
2019-03-08T09:37:49.028Z,2.07
2019-03-08T09:40:28.386Z,1.93
2019-03-08T09:43:04.550Z,1.70
2019-03-08T09:45:40.446Z,2.30
2019-03-08T09:48:26.682Z,1.87
2019-03-08T09:51:11.783Z,1.40
2019-03-08T09:53:44.803Z,2.17
2019-03-08T09:56:23.503Z,2.20
2019-03-08T09:59:09.735Z,2.00
2019-03-08T10:01:42.970Z,1.70
2019-03-08T10:04:19.234Z,2.57
2019-03-08T10:07:07.591Z,2.00
2019-03-08T10:09:53.765Z,2.53
2019-03-08T10:12:38.980Z,2.43
2019-03-08T10:15:28.122Z,1.93
2019-03-08T10:18:16.411Z,2.10
2019-03-08T10:20:46.630Z,1.90
2019-03-08T10:23:34.967Z,2.10
2019-03-08T10:26:08.530Z,2.00
2019-03-08T10:28:54.722Z,1.97
2019-03-08T10:31:24.946Z,2.13
2019-03-08T10:33:57.987Z,1.97
2019-03-08T10:36:44.299Z,2.03
2019-03-08T10:39:26.399Z,2.13
2019-03-08T10:42:02.216Z,2.30
2019-03-08T10:44:32.410Z,2.70
2019-03-08T10:47:11.589Z,2.07
2019-03-08T10:49:56.406Z,2.57
2019-03-08T10:52:29.890Z,1.87
2019-03-08T10:55:16.463Z,2.40
2019-03-08T10:58:01.574Z,2.10
2019-03-08T11:00:31.842Z,2.37
2019-03-08T11:03:02.069Z,2.40
2019-03-08T11:05:37.754Z,2.37
2019-03-08T11:08:29.752Z,2.33
2019-03-08T11:11:06.347Z,2.00
2019-03-08T11:13:42.966Z,2.43
2019-03-08T11:16:07.124Z,2.10
2019-03-08T11:18:53.406Z,1.90
2019-03-08T11:21:35.700Z,1.93
2019-03-08T11:24:08.891Z,1.70
2019-03-08T11:26:40.758Z,2.20
2019-03-08T11:29:13.956Z,2.00
2019-03-08T11:31:44.187Z,1.80
2019-03-08T11:34:14.378Z,2.20
2019-03-08T11:36:44.601Z,2.27
2019-03-08T11:39:35.518Z,1.73
2019-03-08T11:42:11.651Z,2.40
2019-03-08T11:44:59.994Z,1.97
2019-03-08T11:47:42.011Z,2.00
2019-03-08T11:50:12.681Z,2.10
2019-03-08T11:52:48.594Z,2.20
2019-03-08T11:55:30.663Z,1.97
2019-03-08T11:58:06.998Z,2.13
2019-03-08T12:00:53.542Z,2.30
2019-03-08T12:03:35.810Z,2.47
2019-03-08T12:06:06.138Z,2.10
2019-03-08T12:08:36.362Z,2.40
2019-03-08T12:11:27.503Z,2.70
2019-03-08T12:14:12.627Z,2.37
2019-03-08T12:16:59.095Z,2.57
2019-03-08T12:19:47.526Z,2.23
2019-03-08T12:22:33.515Z,1.90
2019-03-08T12:25:19.691Z,1.70
2019-03-08T12:28:01.979Z,2.30
2019-03-08T12:30:48.120Z,1.77
2019-03-08T12:33:33.368Z,1.93
2019-03-08T12:36:09.410Z,1.80
2019-03-08T12:38:57.638Z,1.87
2019-03-08T12:41:30.581Z,2.00
2019-03-08T12:44:09.570Z,1.57
2019-03-08T12:46:48.591Z,1.80
2019-03-08T12:49:30.883Z,2.20
2019-03-08T12:52:06.822Z,1.90
2019-03-08T12:54:39.768Z,2.17
2019-03-08T12:57:21.813Z,1.80
2019-03-08T13:00:00.722Z,1.80
2019-03-08T13:02:33.714Z,2.37
2019-03-08T13:05:16.009Z,1.93
2019-03-08T13:07:46.211Z,2.67
2019-03-08T13:10:15.583Z,2.23
2019-03-08T13:12:44.325Z,1.70
2019-03-08T13:15:15.042Z,2.53
2019-03-08T13:17:43.610Z,2.70
2019-03-08T13:20:14.842Z,2.00
2019-03-08T13:22:43.403Z,2.27
2019-03-08T13:25:12.635Z,1.93
2019-03-08T13:27:41.194Z,2.37
2019-03-08T13:30:18.614Z,2.40
2019-03-08T13:32:47.838Z,1.90
2019-03-08T13:35:16.576Z,2.37
2019-03-08T13:37:45.206Z,2.13
2019-03-08T13:40:15.935Z,2.57
2019-03-08T13:42:44.642Z,2.07
2019-03-08T13:45:18.942Z,2.43
2019-03-08T13:47:47.504Z,2.17
2019-03-08T13:50:16.154Z,2.23
2019-03-08T13:52:45.108Z,2.20
2019-03-08T13:55:17.540Z,2.37
2019-03-08T13:57:46.099Z,2.30
2019-03-08T14:00:19.236Z,2.50
2019-03-08T14:02:47.861Z,2.40
2019-03-08T14:05:16.578Z,3.00
2019-03-08T14:07:45.213Z,2.00
2019-03-08T14:10:19.131Z,2.43
2019-03-08T14:12:47.698Z,2.60
2019-03-08T14:15:17.227Z,2.40
2019-03-08T14:17:45.923Z,2.37
2019-03-08T14:20:17.416Z,2.27
2019-03-08T14:22:46.044Z,2.33
2019-03-08T14:25:14.787Z,2.50
2019-03-08T14:27:43.471Z,1.90
2019-03-08T14:30:15.158Z,2.17
2019-03-08T14:32:43.910Z,2.87
2019-03-08T14:35:12.635Z,2.50
2019-03-08T14:37:41.203Z,2.17
2019-03-08T14:40:17.189Z,2.30
2019-03-08T14:42:46.011Z,2.23
2019-03-08T14:45:16.303Z,2.10
2019-03-08T14:47:44.931Z,2.23
2019-03-08T14:50:13.854Z,2.40
2019-03-08T14:52:42.423Z,2.37
2019-03-08T14:55:12.540Z,2.00
2019-03-08T14:57:41.096Z,2.40
2019-03-08T15:00:16.046Z,2.07
2019-03-08T15:02:47.213Z,1.90
2019-03-08T15:05:15.411Z,2.10
2019-03-08T15:07:45.115Z,2.13
2019-03-08T15:10:16.443Z,2.50
2019-03-08T15:12:49.011Z,2.23
2019-03-08T15:15:17.211Z,2.73
2019-03-08T15:17:45.773Z,2.50
2019-03-08T15:20:16.965Z,1.60
2019-03-08T15:22:45.726Z,2.23
2019-03-08T15:25:15.546Z,2.20
2019-03-08T15:27:44.185Z,2.30
2019-03-08T15:30:19.443Z,2.33
2019-03-08T15:32:48.012Z,2.27
2019-03-08T15:35:17.237Z,2.10
2019-03-08T15:37:45.958Z,2.20
2019-03-08T15:40:20.279Z,2.90
2019-03-08T15:42:48.998Z,2.13
2019-03-08T15:45:17.697Z,1.93
2019-03-08T15:47:46.494Z,2.10
2019-03-08T15:50:21.758Z,1.80
2019-03-08T15:52:51.453Z,1.87
2019-03-08T15:55:20.106Z,1.90
2019-03-08T15:57:48.769Z,1.83
2019-03-08T16:00:21.380Z,2.10
2019-03-08T16:02:50.411Z,1.60
2019-03-08T16:05:23.696Z,1.70
2019-03-08T16:07:50.396Z,1.53
2019-03-08T16:10:23.222Z,1.30
2019-03-08T16:12:52.091Z,1.40
2019-03-08T16:15:20.660Z,1.57
2019-03-08T16:17:49.239Z,1.30
2019-03-08T16:20:19.903Z,1.80
2019-03-08T16:22:48.483Z,1.80
2019-03-08T16:25:17.583Z,1.73
2019-03-08T16:27:46.235Z,1.87
2019-03-08T16:30:25.616Z,1.80
2019-03-08T16:32:59.961Z,2.10
2019-03-08T16:35:30.012Z,2.00
2019-03-08T16:38:18.248Z,2.20
2019-03-08T16:40:51.235Z,1.70
2019-03-08T16:43:36.310Z,1.83
2019-03-08T16:46:22.722Z,1.83
2019-03-08T16:48:58.434Z,1.67
2019-03-08T16:51:44.507Z,2.03
2019-03-08T16:54:14.526Z,1.80
2019-03-08T16:56:47.206Z,2.00
2019-03-08T16:59:33.678Z,2.27
2019-03-08T17:02:03.897Z,1.70
2019-03-08T17:04:34.094Z,2.03
2019-03-08T17:07:07.267Z,1.57
2019-03-08T17:09:37.646Z,1.90
2019-03-08T17:12:25.739Z,1.80
2019-03-08T17:15:07.592Z,1.83
2019-03-08T17:17:43.259Z,2.40
2019-03-08T17:20:19.549Z,2.10
2019-03-08T17:23:01.742Z,2.23
2019-03-08T17:25:31.951Z,2.33
2019-03-08T17:28:13.850Z,1.97
2019-03-08T17:30:49.745Z,2.60
2019-03-08T17:33:19.971Z,2.23
2019-03-08T17:35:50.178Z,2.10
2019-03-08T17:38:20.392Z,2.43
2019-03-08T17:40:59.054Z,2.00
2019-03-08T17:43:29.276Z,2.03
2019-03-08T17:46:05.445Z,2.17
2019-03-08T17:48:35.703Z,2.27
2019-03-08T17:51:05.978Z,2.10
2019-03-08T17:53:36.193Z,2.83
2019-03-08T17:56:21.436Z,1.83
2019-03-08T17:58:51.655Z,2.27
2019-03-08T18:01:39.777Z,2.07
2019-03-08T18:04:18.886Z,1.77
2019-03-08T18:06:49.087Z,2.30
2019-03-08T18:09:24.947Z,3.07
2019-03-08T18:12:10.183Z,2.83
2019-03-08T18:14:56.732Z,2.60
2019-03-08T18:17:29.491Z,4.83
2019-03-08T18:20:15.737Z,15.03
2019-03-08T18:22:51.706Z,17.10
2019-03-08T18:25:24.582Z,9.37
2019-03-08T18:28:11.034Z,12.43
2019-03-08T18:30:53.118Z,4.23
2019-03-08T18:33:32.103Z,5.47
2019-03-08T18:36:02.326Z,6.77
2019-03-08T18:38:41.394Z,7.07
2019-03-08T18:41:23.266Z,14.63
2019-03-08T18:44:02.325Z,5.70
2019-03-08T18:46:35.438Z,2.60
2019-03-08T18:49:05.657Z,3.30
2019-03-08T18:51:38.302Z,4.30
2019-03-08T18:54:24.638Z,2.93
2019-03-08T18:57:12.635Z,2.67
2019-03-08T18:59:42.915Z,2.70
2019-03-08T19:02:21.895Z,2.67
2019-03-08T19:04:54.982Z,2.53
2019-03-08T19:07:31.009Z,2.60
2019-03-08T19:10:17.342Z,2.60
2019-03-08T19:12:47.706Z,2.50
2019-03-08T19:15:34.043Z,2.43
2019-03-08T19:18:10.058Z,2.30
2019-03-08T19:20:40.482Z,2.37
2019-03-08T19:23:13.418Z,2.63
2019-03-08T19:25:59.658Z,2.50
2019-03-08T19:28:45.879Z,2.30
2019-03-08T19:31:16.099Z,2.60
2019-03-08T19:33:57.934Z,2.47
2019-03-08T19:36:31.194Z,2.63
2019-03-08T19:39:10.362Z,2.93
2019-03-08T19:41:46.536Z,3.13
2019-03-08T19:44:31.875Z,2.70
2019-03-08T19:47:17.862Z,2.60
2019-03-08T19:49:48.063Z,2.60
2019-03-08T19:52:18.282Z,2.90
2019-03-08T19:54:51.354Z,2.87
2019-03-08T19:57:27.055Z,3.20
2019-03-08T20:00:00.325Z,2.93
2019-03-08T20:02:30.547Z,3.37
2019-03-08T20:05:12.778Z,3.90
2019-03-08T20:07:58.972Z,3.50
2019-03-08T20:10:41.209Z,3.23
2019-03-08T20:13:20.046Z,3.40
2019-03-08T20:16:05.122Z,3.10
2019-03-08T20:18:35.327Z,3.30
2019-03-08T20:21:05.553Z,3.80
2019-03-08T20:23:41.170Z,4.03
2019-03-08T20:26:27.687Z,3.43
2019-03-08T20:29:03.646Z,4.00
2019-03-08T20:31:50.196Z,4.43
2019-03-08T20:34:20.383Z,4.40
2019-03-08T20:36:50.610Z,4.77
2019-03-08T20:39:29.419Z,4.20
2019-03-08T20:42:14.374Z,4.37
2019-03-08T20:44:47.096Z,4.90
2019-03-08T20:47:20.419Z,4.90
2019-03-08T20:49:49.433Z,4.30
2019-03-08T20:52:18.644Z,4.37
2019-03-08T20:54:47.469Z,4.77
2019-03-08T20:57:16.362Z,4.67
2019-03-08T20:59:45.710Z,4.70
2019-03-08T21:02:14.844Z,5.30
2019-03-08T21:04:43.867Z,5.07
2019-03-08T21:07:12.765Z,4.83
2019-03-08T21:09:41.483Z,5.03
2019-03-08T21:12:10.611Z,4.87
2019-03-08T21:14:39.553Z,4.40
2019-03-08T21:17:08.675Z,4.17
2019-03-08T21:19:37.681Z,3.57
2019-03-08T21:22:06.875Z,4.27
2019-03-08T21:24:35.875Z,4.70
2019-03-08T21:27:04.856Z,4.60
2019-03-08T21:29:33.458Z,3.80
2019-03-08T21:32:02.227Z,4.93
2019-03-08T21:34:30.797Z,4.60
2019-03-08T21:36:59.350Z,4.50
2019-03-08T21:39:28.413Z,3.73
2019-03-08T21:41:57.493Z,4.20
2019-03-08T21:44:26.039Z,3.53
2019-03-08T21:46:54.627Z,3.37
2019-03-08T21:49:23.182Z,3.23
2019-03-08T21:51:51.735Z,3.20
2019-03-08T21:54:20.325Z,2.80
2019-03-08T21:56:48.887Z,2.77
2019-03-08T21:59:17.663Z,2.40
2019-03-08T22:01:46.250Z,2.50
2019-03-08T22:04:19.138Z,2.00
2019-03-08T22:06:47.716Z,1.80
2019-03-08T22:09:20.704Z,2.13
2019-03-08T22:11:49.645Z,2.00
2019-03-08T22:14:18.298Z,2.17
2019-03-08T22:16:46.953Z,2.70
2019-03-08T22:19:15.719Z,2.63
2019-03-08T22:21:44.342Z,2.90
2019-03-08T22:24:13.858Z,3.20
2019-03-08T22:26:42.499Z,3.80
2019-03-08T22:29:11.237Z,4.00
2019-03-08T22:31:39.988Z,4.67
2019-03-08T22:34:08.577Z,4.30
2019-03-08T22:36:37.298Z,4.63
2019-03-08T22:39:06.817Z,4.90
2019-03-08T22:41:35.485Z,5.00
2019-03-08T22:44:04.210Z,4.90
2019-03-08T22:46:32.865Z,4.80
2019-03-08T22:49:01.674Z,5.33
2019-03-08T22:51:30.533Z,4.87
2019-03-08T22:53:59.262Z,5.57
2019-03-08T22:56:28.016Z,5.90
2019-03-08T22:58:56.643Z,5.60
2019-03-08T23:01:27.142Z,5.30
2019-03-08T23:03:55.694Z,5.13
2019-03-08T23:06:24.258Z,5.20
2019-03-08T23:08:52.854Z,4.93
2019-03-08T23:11:21.414Z,5.57
2019-03-08T23:13:50.003Z,5.60
2019-03-08T23:16:18.566Z,4.60
2019-03-08T23:18:47.138Z,5.13
2019-03-08T23:21:15.697Z,4.80
2019-03-08T23:23:44.299Z,4.97
2019-03-08T23:26:12.858Z,4.80
2019-03-08T23:28:43.054Z,4.77
2019-03-08T23:31:13.278Z,4.47
2019-03-08T23:33:41.843Z,4.57
2019-03-08T23:36:10.430Z,4.90
2019-03-08T23:38:38.995Z,4.77
2019-03-08T23:41:07.576Z,4.80
2019-03-08T23:43:36.435Z,4.13
2019-03-08T23:46:05.018Z,4.43
2019-03-08T23:48:33.575Z,4.60
2019-03-08T23:51:02.375Z,4.27
2019-03-08T23:53:30.935Z,4.03
2019-03-08T23:55:59.515Z,4.20
2019-03-08T23:58:28.079Z,4.10
